Southampton, Canada
Current Conditions -  °F | °C
As of 4:00 PM on Saturday 25 Oct 2014 (Local Time) from CYVV Reporting Station
Scattered Clouds Scattered Clouds  
Wind Chill: 55°   Ceiling: Unl
Heat Index: 55°   Visibility: 15mi
Dew Point: 45°   Wind: 12mph
Humidity: 67%   Direction: 270°W
Pressure: 29.6"   Gusts: 21mph
Location:  44.5°N, 81.37°W
Report Text: CYVV 252000Z 27010G18KT 15SM FEW020 SCT070 13/07 A2960 RMKSC1AC3 SLP026
Loading
Personal Weather Stations






























Interactive Weather Map
Tropical Storm Tracking
New forecast layout! Learn more

10-Day Weather Forecast

Advertisements
Track Severe Weather on mobile